createdAt,value
2022-12-03T00:00:19.634Z,1.87
2022-12-03T00:02:46.138Z,2.38
2022-12-03T00:05:12.729Z,2.24
2022-12-03T00:07:39.182Z,2.46
2022-12-03T00:10:06.563Z,2.63
2022-12-03T00:12:33.055Z,2.44
2022-12-03T00:14:59.480Z,2.35
2022-12-03T00:17:25.925Z,2.20
2022-12-03T00:19:52.310Z,2.42
2022-12-03T00:22:18.737Z,2.40
2022-12-03T00:24:45.580Z,2.00
2022-12-03T00:27:12.014Z,2.25
2022-12-03T00:29:38.411Z,1.90
2022-12-03T00:32:05.024Z,2.38
2022-12-03T00:34:31.384Z,2.25
2022-12-03T00:36:57.751Z,2.32
2022-12-03T00:39:24.107Z,2.43
2022-12-03T00:41:50.474Z,2.37
2022-12-03T00:44:16.896Z,2.48
2022-12-03T00:46:43.314Z,2.07
2022-12-03T00:49:09.842Z,2.25
2022-12-03T00:51:36.262Z,2.18
2022-12-03T00:54:02.801Z,2.17
2022-12-03T00:56:29.209Z,2.38
2022-12-03T00:58:55.626Z,2.39
2022-12-03T01:01:22.095Z,2.31
2022-12-03T01:03:48.567Z,2.22
2022-12-03T01:06:14.977Z,2.39
2022-12-03T01:08:41.401Z,2.38
2022-12-03T01:11:27.772Z,2.14
2022-12-03T01:13:54.154Z,2.55
2022-12-03T01:16:20.637Z,2.39
2022-12-03T01:18:47.107Z,2.48
2022-12-03T01:21:13.507Z,2.44
2022-12-03T01:23:39.951Z,2.40
2022-12-03T01:26:06.374Z,2.30
2022-12-03T01:28:32.822Z,2.55
2022-12-03T01:31:18.036Z,2.59
2022-12-03T01:33:44.465Z,2.55
2022-12-03T01:36:10.834Z,2.57
2022-12-03T01:38:37.202Z,2.29
2022-12-03T01:41:08.556Z,2.22
2022-12-03T01:43:38.063Z,2.41
2022-12-03T01:46:04.579Z,2.39
2022-12-03T01:48:33.520Z,2.28
2022-12-03T01:51:00.972Z,2.53
2022-12-03T01:53:27.412Z,2.48
2022-12-03T01:55:53.794Z,2.56
2022-12-03T01:58:24.542Z,2.57
2022-12-03T02:00:51.038Z,2.58
2022-12-03T02:03:21.176Z,2.62
2022-12-03T02:05:48.043Z,2.34
2022-12-03T02:08:43.906Z,2.57
2022-12-03T02:11:23.868Z,2.37
2022-12-03T02:13:52.611Z,2.60
2022-12-03T02:16:19.103Z,2.49
2022-12-03T02:18:45.728Z,2.62
2022-12-03T02:21:24.129Z,2.64
2022-12-03T02:24:15.469Z,2.63
2022-12-03T02:26:41.851Z,2.50
2022-12-03T02:29:08.308Z,2.65
2022-12-03T02:31:34.755Z,2.43
2022-12-03T02:34:06.136Z,2.54
2022-12-03T02:36:33.074Z,2.68
2022-12-03T02:38:59.567Z,2.56
2022-12-03T02:41:44.392Z,2.71
2022-12-03T02:44:10.894Z,2.79
2022-12-03T02:46:37.413Z,2.78
2022-12-03T02:49:05.583Z,2.66
2022-12-03T02:51:32.826Z,2.67
2022-12-03T02:53:59.585Z,2.65
2022-12-03T02:56:28.550Z,2.76
2022-12-03T02:58:57.818Z,2.74
2022-12-03T03:01:24.377Z,2.82
2022-12-03T03:03:51.210Z,2.80
2022-12-03T03:06:18.496Z,2.66
2022-12-03T03:08:45.092Z,2.66
2022-12-03T03:11:11.852Z,2.77
2022-12-03T03:13:39.055Z,2.71
2022-12-03T03:16:07.217Z,2.46
2022-12-03T03:18:34.303Z,2.69
2022-12-03T03:21:00.941Z,2.89
2022-12-03T03:23:27.442Z,2.91
2022-12-03T03:26:00.743Z,2.77
2022-12-03T03:28:28.529Z,2.82
2022-12-03T03:30:55.674Z,2.82
2022-12-03T03:33:22.207Z,2.67
2022-12-03T03:35:49.176Z,2.92
2022-12-03T03:38:17.836Z,2.81
2022-12-03T03:40:44.423Z,3.02
2022-12-03T03:43:11.942Z,2.88
2022-12-03T03:45:38.385Z,2.83
2022-12-03T03:48:04.987Z,2.86
2022-12-03T03:50:31.695Z,2.96
2022-12-03T03:52:59.047Z,3.01
2022-12-03T03:55:25.586Z,3.02
2022-12-03T03:57:51.978Z,2.87
2022-12-03T04:00:18.823Z,2.75
2022-12-03T04:02:45.470Z,2.90
2022-12-03T04:05:17.591Z,3.03
2022-12-03T04:07:44.115Z,3.02
2022-12-03T04:10:29.648Z,3.01
2022-12-03T04:12:56.206Z,2.86
2022-12-03T04:15:23.014Z,3.17
2022-12-03T04:18:09.749Z,3.12
2022-12-03T04:20:36.778Z,2.96
2022-12-03T04:23:03.523Z,2.62
2022-12-03T04:25:48.503Z,3.00
2022-12-03T04:28:33.626Z,2.93
2022-12-03T04:31:00.073Z,2.97
2022-12-03T04:33:45.029Z,3.05
2022-12-03T04:36:11.438Z,2.89
2022-12-03T04:38:37.859Z,2.86
2022-12-03T04:41:04.437Z,2.81
2022-12-03T04:43:32.904Z,3.00
2022-12-03T04:45:59.878Z,2.82
2022-12-03T04:48:26.538Z,3.08
2022-12-03T04:50:53.094Z,2.95
2022-12-03T04:53:19.765Z,3.07
2022-12-03T04:55:46.161Z,2.91
2022-12-03T04:58:12.527Z,2.74
2022-12-03T05:00:39.103Z,2.92
2022-12-03T05:03:05.517Z,2.76
2022-12-03T05:05:31.969Z,2.71
2022-12-03T05:07:58.344Z,2.96
2022-12-03T05:10:24.774Z,2.98
2022-12-03T05:12:51.136Z,2.75
2022-12-03T05:15:17.546Z,2.73
2022-12-03T05:17:43.897Z,3.10
2022-12-03T05:20:29.570Z,3.05
2022-12-03T05:22:55.986Z,3.07
2022-12-03T05:25:22.348Z,2.98
2022-12-03T05:27:48.794Z,2.98
2022-12-03T05:30:15.252Z,3.03
2022-12-03T05:32:41.667Z,2.94
2022-12-03T05:35:09.243Z,3.00
2022-12-03T05:37:35.606Z,2.92
2022-12-03T05:40:02.035Z,2.93
2022-12-03T05:42:47.030Z,2.86
2022-12-03T05:45:13.462Z,2.97
2022-12-03T05:47:39.839Z,2.85
2022-12-03T05:50:07.016Z,2.88
2022-12-03T05:52:33.419Z,2.55
2022-12-03T05:54:59.838Z,2.73
2022-12-03T05:57:26.280Z,2.95
2022-12-03T05:59:52.647Z,2.88
2022-12-03T06:02:19.303Z,2.80
2022-12-03T06:04:45.826Z,2.69
2022-12-03T06:07:14.206Z,2.65
2022-12-03T06:09:40.980Z,2.75
2022-12-03T06:12:08.631Z,2.85
2022-12-03T06:14:35.688Z,2.73
2022-12-03T06:17:02.314Z,2.85
2022-12-03T06:19:28.682Z,2.90
2022-12-03T06:21:55.432Z,2.81
2022-12-03T06:24:21.861Z,2.81
2022-12-03T06:26:48.290Z,2.81
2022-12-03T06:29:14.653Z,2.78
2022-12-03T06:31:41.037Z,3.00
2022-12-03T06:34:07.436Z,2.97
2022-12-03T06:36:33.830Z,2.86
2022-12-03T06:39:00.208Z,2.71
2022-12-03T06:41:26.630Z,2.79
2022-12-03T06:43:53.039Z,3.00
2022-12-03T06:46:19.521Z,2.78
2022-12-03T06:48:46.014Z,2.91
2022-12-03T06:51:12.388Z,2.91
2022-12-03T06:53:38.800Z,2.72
2022-12-03T06:56:05.531Z,2.77
2022-12-03T06:58:31.920Z,2.75
2022-12-03T07:00:58.336Z,2.65
2022-12-03T07:03:24.993Z,2.82
2022-12-03T07:05:51.400Z,2.86
2022-12-03T07:08:17.884Z,2.80
2022-12-03T07:10:44.548Z,2.86
2022-12-03T07:13:10.907Z,2.68
2022-12-03T07:15:37.318Z,2.66
2022-12-03T07:18:04.177Z,2.31
2022-12-03T07:20:30.586Z,2.60
2022-12-03T07:22:56.946Z,2.65
2022-12-03T07:25:23.921Z,2.61
2022-12-03T07:27:50.692Z,2.53
2022-12-03T07:30:17.272Z,2.46
2022-12-03T07:32:43.743Z,2.61
2022-12-03T07:35:10.274Z,2.57
2022-12-03T07:37:39.846Z,2.64
2022-12-03T07:40:06.827Z,2.46
2022-12-03T07:42:33.243Z,2.63
2022-12-03T07:44:59.760Z,2.52
2022-12-03T07:47:26.207Z,2.63
2022-12-03T07:49:52.577Z,2.50
2022-12-03T07:52:18.952Z,2.44
2022-12-03T07:54:45.339Z,2.42
2022-12-03T07:57:11.719Z,2.45
2022-12-03T07:59:38.120Z,2.50
2022-12-03T08:02:04.733Z,2.61
2022-12-03T08:04:31.194Z,2.56
2022-12-03T08:06:57.605Z,2.25
2022-12-03T08:09:24.015Z,2.46
2022-12-03T08:11:50.502Z,2.04
2022-12-03T08:14:18.479Z,2.48
2022-12-03T08:16:46.192Z,2.36
2022-12-03T08:19:14.731Z,2.36
2022-12-03T08:21:41.535Z,2.33
2022-12-03T08:24:19.752Z,2.34
2022-12-03T08:26:48.347Z,2.20
2022-12-03T08:29:18.121Z,2.22
2022-12-03T08:31:54.741Z,2.32
2022-12-03T08:34:23.751Z,2.24
2022-12-03T08:37:02.228Z,2.11
2022-12-03T08:39:34.076Z,2.38
2022-12-03T08:42:35.398Z,2.33
2022-12-03T08:45:20.477Z,2.26
2022-12-03T08:47:46.854Z,2.12
2022-12-03T08:50:29.708Z,2.40
2022-12-03T08:53:29.818Z,2.26
2022-12-03T08:56:01.569Z,2.33
2022-12-03T08:58:30.865Z,2.18
2022-12-03T09:01:11.020Z,2.22
2022-12-03T09:03:39.384Z,2.28
2022-12-03T09:06:05.992Z,1.94
2022-12-03T09:08:47.523Z,2.22
2022-12-03T09:11:14.089Z,2.31
2022-12-03T09:13:41.012Z,2.03
2022-12-03T09:16:08.015Z,2.29
2022-12-03T09:18:34.494Z,2.27
2022-12-03T09:21:00.929Z,2.16
2022-12-03T09:23:27.319Z,1.88
2022-12-03T09:25:53.696Z,2.16
2022-12-03T09:28:20.091Z,2.45
2022-12-03T09:30:46.455Z,2.32
2022-12-03T09:33:13.937Z,2.24
2022-12-03T09:35:40.384Z,2.41
2022-12-03T09:38:06.807Z,2.27
2022-12-03T09:40:33.970Z,2.09
2022-12-03T09:43:00.815Z,2.42
2022-12-03T09:45:27.215Z,2.36
2022-12-03T09:47:54.886Z,2.22
2022-12-03T09:50:23.398Z,2.43
2022-12-03T09:52:51.045Z,2.34
2022-12-03T09:55:21.574Z,2.50
2022-12-03T09:57:47.975Z,2.36
2022-12-03T10:00:19.199Z,2.41
2022-12-03T10:02:47.162Z,2.07
2022-12-03T10:05:14.500Z,2.23
2022-12-03T10:07:41.445Z,2.13
2022-12-03T10:10:15.751Z,2.16
2022-12-03T10:12:42.227Z,2.28
2022-12-03T10:15:12.346Z,2.37
2022-12-03T10:17:38.739Z,2.29
2022-12-03T10:20:06.068Z,2.33
2022-12-03T10:22:37.019Z,2.36
2022-12-03T10:25:12.588Z,2.43
2022-12-03T10:27:39.674Z,2.44
2022-12-03T10:30:19.493Z,2.37
2022-12-03T10:32:50.978Z,2.42
2022-12-03T10:35:23.058Z,2.45
2022-12-03T10:38:24.820Z,2.37
2022-12-03T10:40:51.260Z,2.13
2022-12-03T10:43:26.950Z,2.13
2022-12-03T10:46:01.993Z,2.24
2022-12-03T10:48:30.321Z,2.17
2022-12-03T10:51:03.591Z,1.94
2022-12-03T10:53:31.684Z,1.88
2022-12-03T10:55:59.891Z,1.88
2022-12-03T10:58:31.403Z,1.99
2022-12-03T11:00:58.972Z,1.94
2022-12-03T11:03:27.291Z,2.06
2022-12-03T11:05:54.834Z,2.20
2022-12-03T11:08:26.987Z,2.05
2022-12-03T11:11:01.026Z,2.20
2022-12-03T11:13:33.332Z,2.19
2022-12-03T11:16:04.864Z,2.09
2022-12-03T11:18:37.387Z,2.08
2022-12-03T11:21:11.952Z,1.97
2022-12-03T11:23:44.444Z,2.07
2022-12-03T11:26:29.112Z,2.04
2022-12-03T11:28:57.623Z,1.95
2022-12-03T11:31:46.510Z,2.09
2022-12-03T11:34:19.321Z,1.98
2022-12-03T11:37:10.489Z,1.85
2022-12-03T11:39:52.955Z,2.05
2022-12-03T11:42:25.661Z,2.14
2022-12-03T11:45:04.310Z,2.05
2022-12-03T11:47:39.028Z,1.85
2022-12-03T11:50:41.272Z,1.83
2022-12-03T11:53:14.112Z,2.04
2022-12-03T11:55:44.425Z,2.00
2022-12-03T11:58:22.017Z,1.94
2022-12-03T12:00:50.723Z,1.46
2022-12-03T12:03:49.914Z,2.01
2022-12-03T12:06:18.897Z,1.92
2022-12-03T12:08:51.408Z,1.79
2022-12-03T12:11:30.621Z,1.89
2022-12-03T12:14:24.022Z,1.83
2022-12-03T12:16:52.539Z,1.92
2022-12-03T12:19:36.955Z,1.78
2022-12-03T12:22:15.465Z,1.82
2022-12-03T12:24:47.875Z,1.89
2022-12-03T12:27:34.525Z,1.98
2022-12-03T12:30:12.962Z,1.81
2022-12-03T12:32:51.399Z,1.82
2022-12-03T12:35:17.778Z,1.95
2022-12-03T12:37:58.076Z,1.68
2022-12-03T12:40:30.900Z,1.88
2022-12-03T12:43:02.190Z,1.62
2022-12-03T12:45:35.122Z,1.63
2022-12-03T12:48:09.969Z,1.66
2022-12-03T12:50:39.733Z,1.77
2022-12-03T12:53:24.800Z,1.64
2022-12-03T12:56:02.319Z,1.88
2022-12-03T12:58:31.942Z,1.83
2022-12-03T13:01:01.105Z,1.81
2022-12-03T13:03:34.772Z,1.58
2022-12-03T13:06:02.287Z,1.78
2022-12-03T13:08:32.245Z,1.79
2022-12-03T13:11:00.180Z,1.95
2022-12-03T13:13:43.346Z,1.83
2022-12-03T13:16:18.559Z,1.88
2022-12-03T13:18:47.224Z,1.80
2022-12-03T13:21:24.508Z,1.69
2022-12-03T13:23:56.471Z,1.28
2022-12-03T13:26:37.755Z,1.77
2022-12-03T13:29:14.996Z,1.57
2022-12-03T13:31:44.390Z,1.76
2022-12-03T13:34:16.952Z,1.14
2022-12-03T13:36:45.139Z,1.53
2022-12-03T13:39:18.726Z,1.59
2022-12-03T13:42:03.658Z,1.41
2022-12-03T13:44:31.943Z,1.63
2022-12-03T13:47:06.972Z,1.36
2022-12-03T13:49:34.510Z,1.23
2022-12-03T13:52:00.926Z,1.44
2022-12-03T13:54:29.347Z,1.26
2022-12-03T13:56:55.737Z,1.17
2022-12-03T13:59:26.143Z,1.24
2022-12-03T14:01:52.958Z,1.37
2022-12-03T14:04:19.359Z,1.24
2022-12-03T14:06:45.751Z,1.17
2022-12-03T14:09:12.216Z,1.18
2022-12-03T14:11:57.285Z,1.17
2022-12-03T14:14:29.805Z,1.20
2022-12-03T14:16:59.880Z,1.04
2022-12-03T14:19:26.765Z,0.87
2022-12-03T14:21:53.213Z,1.07
2022-12-03T14:24:19.838Z,1.11
2022-12-03T14:26:49.170Z,1.41
2022-12-03T14:29:15.632Z,1.24
2022-12-03T14:31:42.555Z,1.13
2022-12-03T14:34:09.078Z,1.27
2022-12-03T14:36:35.462Z,1.10
2022-12-03T14:39:01.849Z,1.24
2022-12-03T14:41:46.738Z,1.42
2022-12-03T14:44:13.179Z,1.57
2022-12-03T14:46:39.611Z,1.47
2022-12-03T14:49:06.097Z,1.56
2022-12-03T14:51:32.644Z,1.42
2022-12-03T14:53:59.215Z,1.41
2022-12-03T14:56:25.639Z,1.29
2022-12-03T14:58:55.003Z,1.61
2022-12-03T15:01:21.482Z,1.17
2022-12-03T15:03:47.914Z,1.02
2022-12-03T15:06:14.340Z,1.14
2022-12-03T15:08:41.104Z,1.43
2022-12-03T15:11:07.696Z,1.28
2022-12-03T15:13:34.126Z,1.64
2022-12-03T15:16:00.485Z,1.17
2022-12-03T15:18:26.918Z,1.19
2022-12-03T15:20:53.291Z,0.94
2022-12-03T15:23:19.643Z,1.34
2022-12-03T15:25:46.832Z,1.28
2022-12-03T15:28:13.207Z,1.04
2022-12-03T15:30:39.664Z,1.12
2022-12-03T15:33:06.287Z,1.09
2022-12-03T15:35:32.879Z,1.50
2022-12-03T15:37:59.655Z,1.43
2022-12-03T15:40:26.280Z,1.10
2022-12-03T15:42:52.731Z,1.37
2022-12-03T15:45:19.114Z,1.28
2022-12-03T15:47:45.832Z,1.37
2022-12-03T15:50:13.964Z,1.03
2022-12-03T15:52:40.595Z,1.34
2022-12-03T15:55:07.515Z,1.32
2022-12-03T15:57:33.931Z,1.31
2022-12-03T16:00:00.384Z,0.93
2022-12-03T16:02:33.460Z,1.18
2022-12-03T16:05:01.357Z,1.31
2022-12-03T16:07:27.888Z,1.19
2022-12-03T16:09:55.142Z,1.49
2022-12-03T16:12:21.654Z,1.06
2022-12-03T16:14:48.074Z,1.38
2022-12-03T16:17:14.575Z,1.28
2022-12-03T16:19:40.935Z,1.29
2022-12-03T16:22:07.308Z,0.92
2022-12-03T16:24:33.710Z,0.74
2022-12-03T16:27:00.128Z,0.88
2022-12-03T16:29:26.492Z,1.24
2022-12-03T16:31:52.890Z,1.23
2022-12-03T16:34:19.325Z,1.36
2022-12-03T16:36:45.752Z,1.38
2022-12-03T16:39:12.739Z,1.12
2022-12-03T16:41:39.496Z,1.44
2022-12-03T16:44:07.650Z,1.40
2022-12-03T16:46:34.144Z,1.32
2022-12-03T16:49:00.609Z,1.34
2022-12-03T16:51:28.041Z,1.11
2022-12-03T16:53:54.802Z,1.20
2022-12-03T16:56:21.199Z,1.11
2022-12-03T16:58:47.612Z,1.12
2022-12-03T17:01:14.052Z,1.09
2022-12-03T17:03:40.665Z,1.14
2022-12-03T17:06:07.223Z,0.96
2022-12-03T17:08:33.775Z,0.79
2022-12-03T17:11:00.162Z,0.97
2022-12-03T17:13:26.656Z,1.05
2022-12-03T17:15:53.078Z,0.47
2022-12-03T17:18:19.536Z,0.82
2022-12-03T17:20:45.966Z,0.61
2022-12-03T17:23:12.427Z,0.76
2022-12-03T17:25:38.834Z,1.06
2022-12-03T17:28:05.268Z,1.06
2022-12-03T17:30:31.663Z,0.94
2022-12-03T17:32:58.072Z,1.32
2022-12-03T17:35:25.028Z,1.15
2022-12-03T17:37:51.387Z,0.90
2022-12-03T17:40:17.784Z,1.14
2022-12-03T17:42:44.164Z,0.69
2022-12-03T17:45:11.099Z,1.23
2022-12-03T17:47:37.538Z,1.24
2022-12-03T17:50:04.135Z,1.14
2022-12-03T17:52:30.553Z,1.10
2022-12-03T17:55:18.074Z,1.12
2022-12-03T17:57:43.328Z,0.99
2022-12-03T18:00:10.289Z,1.11
2022-12-03T18:02:36.716Z,0.60
2022-12-03T18:05:03.693Z,0.85
2022-12-03T18:07:30.178Z,0.90
2022-12-03T18:09:57.072Z,0.74
2022-12-03T18:12:23.947Z,0.85
2022-12-03T18:14:50.351Z,0.66
2022-12-03T18:17:16.745Z,0.94
2022-12-03T18:19:43.149Z,1.12
2022-12-03T18:22:09.783Z,0.66
2022-12-03T18:24:36.234Z,0.56
2022-12-03T18:27:02.667Z,0.61
2022-12-03T18:29:29.097Z,0.33
2022-12-03T18:31:55.560Z,0.28
2022-12-03T18:34:21.989Z,0.69
2022-12-03T18:36:48.743Z,1.01
2022-12-03T18:39:27.070Z,0.68
2022-12-03T18:41:53.770Z,0.45
2022-12-03T18:44:20.264Z,0.69
2022-12-03T18:46:54.835Z,0.45
2022-12-03T18:49:22.068Z,0.83
2022-12-03T18:51:49.312Z,0.95
2022-12-03T18:54:16.942Z,0.67
2022-12-03T18:56:43.305Z,0.52
2022-12-03T18:59:09.784Z,0.90
2022-12-03T19:01:36.546Z,0.34
2022-12-03T19:04:03.599Z,0.87
2022-12-03T19:06:30.492Z,0.36
2022-12-03T19:08:57.575Z,0.47
2022-12-03T19:11:24.312Z,0.79
2022-12-03T19:13:51.231Z,0.54
2022-12-03T19:16:17.668Z,0.83
2022-12-03T19:18:44.254Z,0.56
2022-12-03T19:21:15.089Z,0.82
2022-12-03T19:23:47.208Z,0.61
2022-12-03T19:26:25.455Z,0.66
2022-12-03T19:28:53.476Z,0.81
2022-12-03T19:31:20.120Z,0.40
2022-12-03T19:33:46.777Z,0.44
2022-12-03T19:36:24.545Z,0.87
2022-12-03T19:38:56.709Z,0.58
2022-12-03T19:41:26.658Z,0.72
2022-12-03T19:43:54.754Z,0.33
2022-12-03T19:46:22.626Z,0.47
2022-12-03T19:48:49.132Z,0.21
2022-12-03T19:51:33.618Z,0.82
2022-12-03T19:54:01.713Z,0.67
2022-12-03T19:56:30.204Z,0.23
2022-12-03T19:58:56.965Z,0.52
2022-12-03T20:01:28.961Z,0.74
2022-12-03T20:03:57.231Z,0.65
2022-12-03T20:06:26.903Z,0.74
2022-12-03T20:09:05.033Z,0.82
2022-12-03T20:11:33.978Z,0.91
2022-12-03T20:14:08.882Z,0.89
2022-12-03T20:16:35.907Z,0.60
2022-12-03T20:19:05.238Z,0.43
2022-12-03T20:21:33.518Z,0.80
2022-12-03T20:24:00.507Z,0.53
2022-12-03T20:26:27.511Z,0.96
2022-12-03T20:28:55.029Z,0.45
2022-12-03T20:31:23.304Z,0.86
2022-12-03T20:33:51.744Z,0.91
2022-12-03T20:36:20.573Z,0.92
2022-12-03T20:38:47.106Z,0.43
2022-12-03T20:41:15.688Z,0.78
2022-12-03T20:43:42.136Z,0.72
2022-12-03T20:46:18.934Z,0.82
2022-12-03T20:48:45.717Z,0.76
2022-12-03T20:51:15.123Z,0.47
2022-12-03T20:53:42.104Z,0.83
2022-12-03T20:56:09.114Z,0.75
2022-12-03T20:58:35.960Z,0.91
2022-12-03T21:01:16.113Z,0.72
2022-12-03T21:03:42.918Z,0.44
2022-12-03T21:06:10.255Z,0.58
2022-12-03T21:08:41.389Z,0.61
2022-12-03T21:11:10.192Z,0.58
2022-12-03T21:13:36.601Z,0.43
2022-12-03T21:16:05.763Z,0.62
2022-12-03T21:18:32.579Z,0.59
2022-12-03T21:21:00.887Z,0.75
2022-12-03T21:23:28.600Z,0.68
2022-12-03T21:26:00.749Z,0.60
2022-12-03T21:28:27.127Z,0.61
2022-12-03T21:30:53.547Z,0.70
2022-12-03T21:33:20.004Z,0.40
2022-12-03T21:35:46.421Z,0.63
2022-12-03T21:38:12.946Z,0.72
2022-12-03T21:40:39.350Z,0.55
2022-12-03T21:43:05.755Z,0.47
2022-12-03T21:45:32.328Z,0.46
2022-12-03T21:47:58.860Z,0.62
2022-12-03T21:50:25.380Z,0.56
2022-12-03T21:52:52.665Z,0.26
2022-12-03T21:55:19.058Z,0.13
2022-12-03T21:57:45.439Z,0.29
2022-12-03T22:00:12.463Z,0.49
2022-12-03T22:02:40.102Z,0.81
2022-12-03T22:05:08.255Z,0.73
2022-12-03T22:07:35.482Z,0.70
2022-12-03T22:10:02.151Z,0.62
2022-12-03T22:12:28.527Z,0.61
2022-12-03T22:14:57.044Z,0.75
2022-12-03T22:17:27.214Z,0.89
2022-12-03T22:19:53.833Z,0.42
2022-12-03T22:22:20.595Z,0.84
2022-12-03T22:24:47.207Z,0.66
2022-12-03T22:27:14.350Z,0.55
2022-12-03T22:29:40.768Z,0.79
2022-12-03T22:32:07.204Z,0.76
2022-12-03T22:34:33.728Z,0.56
2022-12-03T22:37:00.095Z,0.55
2022-12-03T22:39:26.501Z,0.56
2022-12-03T22:41:52.924Z,0.50
2022-12-03T22:44:19.324Z,0.71
2022-12-03T22:46:45.784Z,0.44
2022-12-03T22:49:12.942Z,0.57
2022-12-03T22:51:39.515Z,0.59
2022-12-03T22:54:06.214Z,0.64
2022-12-03T22:56:32.931Z,0.70
2022-12-03T22:58:59.758Z,0.77
2022-12-03T23:01:29.973Z,0.75
2022-12-03T23:03:56.665Z,0.73
2022-12-03T23:06:23.675Z,0.47
2022-12-03T23:08:50.541Z,0.67
2022-12-03T23:11:17.587Z,0.90
2022-12-03T23:13:44.112Z,0.75
2022-12-03T23:16:16.383Z,0.80
2022-12-03T23:18:42.880Z,0.66
2022-12-03T23:21:09.338Z,0.24
2022-12-03T23:23:35.739Z,0.41
2022-12-03T23:26:07.538Z,0.87
2022-12-03T23:28:35.894Z,0.59
2022-12-03T23:31:03.340Z,0.75
2022-12-03T23:33:33.985Z,0.82
2022-12-03T23:36:05.618Z,0.87
2022-12-03T23:38:32.033Z,0.71
2022-12-03T23:41:06.470Z,0.65
2022-12-03T23:43:33.195Z,0.59
2022-12-03T23:46:08.056Z,0.78
2022-12-03T23:48:34.704Z,0.51
2022-12-03T23:51:05.839Z,0.70
2022-12-03T23:53:34.335Z,0.52
2022-12-03T23:56:03.980Z,0.67
2022-12-03T23:58:30.346Z,0.52
